AirNav   Pilot Hours Calculator
 
 966 users online  

KRFG Rooke Field Airport
Refugio, Texas, USA

GOING TO REFUGIO?


FAA INFORMATION EFFECTIVE 22 APRIL 2021

Location

FAA Identifier: RFG
Lat/Long: 28-17-45.8400N 097-19-34.9700W
28-17.764000N 097-19.582833W
28.2960667,-97.3263806
(estimated)
Elevation: 56 ft. / 17.1 m (surveyed)
Variation: 07E (1985)
From city: 3 miles W of REFUGIO, TX
Time zone: UTC -5 (UTC -6 during Standard Time)
Zip code: 78393

Airport Operations

Airport use: Open to the public
Activation date: 01/1945
Control tower: no
ARTCC: HOUSTON CENTER
FSS: SAN ANGELO FLIGHT SERVICE STATION
NOTAMs facility: SJT (NOTAM-D service available)
Attendance: 0800-1700
Pattern altitude: 856 ft. MSL
Wind indicator: yes
Segmented circle: yes
Lights: MIRL RWY 14L/32R SS-SR PRESET LOW, TO INCR INTST - CTAF.
Beacon: white-green (lighted land airport)
Operates sunset to sunrise.

Airport Communications

CTAF/UNICOM: 122.8
WX AWOS-3 at T69 (19 nm SW): 118.25 (361-364-1844)
WX ASOS at RKP (20 nm SE): 119.275 (361-729-2372)

Nearby radio navigation aids

VOR radial/distance  VOR name  Freq  Var
CRPr006/24.4CORPUS CHRISTI VORTAC115.5009E

 
NDB name  Hdg/Dist  Freq  Var  ID
MELLON RANCH273/6.437506EMNO -- -. ---

Airport Services

Fuel available: 100LL MOGAS
FUEL AVBL 24 HRS SELF SVC WITH CREDIT CARD.
Parking: hangars and tiedowns
Airframe service: NONE
Powerplant service: NONE
Bottled oxygen: NONE
Bulk oxygen: NONE

Runway Information

Runway 14L/32R

Dimensions: 4361 x 60 ft. / 1329 x 18 m
Surface: asphalt, in good condition
Weight bearing capacity: 
Single wheel: 9.0
Runway edge lights: medium intensity
Runway edge markings: RWY MARKINGS FADED.
Operational restrictions: RWY LINE OF SIGHT LTD BTN RWY ENDS.
RUNWAY 14L  RUNWAY 32R
Latitude: 28-18.062667N28-17.435333N
Longitude: 097-19.757500W097-19.359167W
Elevation: 52.0 ft.54.0 ft.
Traffic pattern: leftright
Runway heading: 144 magnetic, 151 true324 magnetic, 331 true
Displaced threshold: no166 ft.
Markings: nonprecision, in poor conditionnonprecision, in poor condition
Visual slope indicator: 2-light PAPI on left (3.00 degrees glide path)
Touchdown point: yes, no lightsyes, no lights
Obstructions: 11 ft. tree, 277 ft. from runway, 10 ft. left of centerline, 7:1 slope to clear15 ft. road, 375 ft. from runway, 145 ft. left of centerline, 11:1 slope to clear
APCH SLOPE 36:1 FM DSPLCD THR OVR 15 FT ROAD 541 FT DSTC; 22:1 OVR 40 FT TWR, 882 FT DSTC, 125 FT R.

Runway 14R/32L

Dimensions: 3000 x 100 ft. / 914 x 30 m
Surface: turf, in fair condition
RUNWAY 14R  RUNWAY 32L
Latitude: 28-18.004167N28-17.571667N
Longitude: 097-19.754167W097-19.481667W
Elevation: 56.0 ft.56.0 ft.
Traffic pattern: rightleft
Markings: none, in fair conditionnone, in fair condition
Touchdown point: yes, no lightsyes, no lights
Obstructions: 28 ft. trees, 966 ft. from runway, 168 ft. of centerline, 34:1 slope to clearnone

Airport Ownership and Management from official FAA records

Ownership: Publicly-owned
Owner: REFUGIO COUNTY
808 COMMERCE RM 104
REFUGIO, TX 78377
Phone 361-526-4434
Manager: GARY HENRY
PO BOX 637
WOODSBORO, TX 78393
Phone 361-438-1775
CELL 361-533-1346.

Airport Operational Statistics

Aircraft based on the field: 17
Single engine airplanes: 9
Multi engine airplanes: 4
Helicopters: 1
Gliders airplanes: 3
    
Aircraft operations: avg 75/week *
77% local general aviation
23% transient general aviation
* for 12-month period ending 03 May 2020

Additional Remarks

RWY 14R/32L SW OF RWY 14L/32R FOR GLIDER OPNS ONLY.
SIMUL PARL RWY OPNS NA.
GLIDER ACTVTY ON & INVOF ARPT.
WILDLIFE ON & INVOF ARPT.
FOR CD CTC HOUSTON ARTCC AT 281-230-5622.

Instrument Procedures

There are no published instrument procedures at KRFG.

Some nearby airports with instrument procedures:

TX2 - Chase Field Industrial Airport (18 nm W)
T69 - Alfred C 'Bubba' Thomas Airport (19 nm SW)
KRKP - Aransas County Airport (20 nm SE)
KTFP - McCampbell-Porter Airport (24 nm S)
KNGT - Goliad Naval Outlying Field (24 nm NW)
 
Loc | Ops | Rwys | IFR | FBO | Links
Com | Nav | Svcs | Stats | Notes
Area around KRFG (Rooke Field Airport)
 
Road maps at: MapQuest Bing Google
 
Aerial photo
WARNING: Photo may not be current or correct
Aerial photo of KRFG (Rooke Field Airport)
Do you have a better or more recent aerial photo of Rooke Field Airport that you would like to share? If so, please send us your photo.

 
Sectional chart

 
Airport distance calculator
Flying to Rooke Field Airport? Find the distance to fly.

From to KRFG

Sunrise and sunset
Times for 18-May-2021
 Local
(UTC-5)
 Zulu
(UTC)
Morning civil twilight06:1311:13
Sunrise06:3811:38
Sunset20:1301:13
Evening civil twilight20:3901:39

Current date and time
Zulu (UTC)  19-May-2021 03:09:57
Local (UTC-5)  18-May-2021 22:09:57
 
METAR
KT69 
19nm SW 
190255Z AUTO 15007KT 6SM BR SCT024 BKN028 27/25 A2974 RMK A01
KRKP 
19nm SE 
190253Z AUTO 13015G20KT 5SM -RA BR OVC007 26/26 A2974 RMK AO2 LTG DSNT N RAB39 SLP072 P0000 60000 T02610256 53010
KTFP 
24nm S 
190255Z AUTO 15015G20KT 7SM OVC009 27/26 A2972 RMK AO2 LTG DSNT N AND NE T02720256
KBEA 
25nm W 
190255Z AUTO 01003KT 10SM VCTS OVC011 24/23 A2975 RMK AO2 LTG DSNT NW THRU E T02380234
KRAS 
32nm SE 
190255Z AUTO 12013G19KT 7SM BR BKN010 OVC016 26/25 A2975 RMK AO2 LTG DSNT N T02640252
KCRP 
33nm S 
190251Z 13008KT 9SM FEW009 OVC013 27/25 A2973 RMK AO2 SLP066 T02670250 51019
KRBO 
37nm SW 
190255Z AUTO 11005KT 10SM OVC016 28/26 A2974 RMK AO2 LTG DSNT N AND NE T02760262
KNGP 
37nm S 
190256Z 13019KT 7SM BKN008 OVC014 27/25 A2973 RMK AO2 SLP066 T02720250 53016 $
TAF
KCRP 
33nm S 
182212Z 1822/1918 14016KT P6SM BKN015 TEMPO 1822/1901 SCT015 BKN025 FM191700 14019G24KT P6SM -TSRA OVC012CB
KNGP 
37nm S 
1823/1923 13018G25KT 9999 BKN012 BKN020 520004 QNH2968INS TEMPO 1823/1902 SCT010 BKN015 OVC025 FM190200 13015KT 9999 BKN010 OVC018 510003 QNH2970INS FM190700 14015KT 9999 VCTS BKN012 OVC020CB 510003 QNH2974INS TEMPO 1908/1914 VRB15G25KT 4000 RA BR BKN010 OVC020CB FM191400 13018G25KT 6000 TSRA OVC015CB 520004 QNH2974INS TEMPO 1915/1921 VRB25G45KT 1200 +TSRA BKN009 OVC018CB AUTOMATED SENSOR METWATCH 1904 TIL 1911 T24/1912Z T28/1919Z FN20058
KVCT 
40nm NE 
190202Z 1902/1924 13013G20KT P6SM -TSRA BKN012CB OVC040 TEMPO 1902/1904 2SM TSRA BR OVC012CB FM190600 12012KT P6SM VCTS BKN012CB OVC040 FM191400 13013G20KT P6SM -TSRA OVC025CB
NOTAMs
Click for the latest NOTAMs
NOTAMs are issued by the DoD/FAA and will open in a separate window not controlled by AirNav.

 

 
 

Would you like to see your business listed on this page?

 If your business provides an interesting product or service to pilots, flight crews, aircraft, or users of the Rooke Field Airport, you should consider listing it here.  To start the listing process, click on the button below
 
Add a business
 

Other Pages about Rooke Field Airport

Update a link
 
Copyright © AirNav, LLC. All rights reserved. Privacy Policy  Contact